Latest Weather Observations for Busselton Airport

IDW60801

Issued at 5:05 pm WST Saturday 1 November 2014 (issued every 30 minutes, with the page automatically refreshed every 10 minutes)

About weather observations | Map of weather stations | Latest weather observations for WA | Other Formats
Station Details ID: 009603 Name: BUSSELTON AERO Lat: -33.69 Lon: 115.40 Height: 16.3 m
Data from the previous 72 hours. | See also: Recent months at Busselton Airport
Date/Time
WST
Temp
°C
App
Temp
°C
Dew
Point
Rel
Hum
%
Delta-T
°C
Wind Press
QNH
hPa
Press
MSL
hPa
Rain
since 9 am
mm
Dir
 
Spd
km/h
Gust
km/h
Spd
kts
Gust
kts
01/05:00pm 22.9 20.9 10.3 45 6.9 NNW 11 15 6 8 1014.9 1014.9 0.0
01/04:30pm 23.4 21.3 11.1 46 6.9 NNW 13 19 7 10 1015.1 1015.1 0.0
01/04:00pm 23.3 21.3 11.4 47 6.7 NW 13 17 7 9 1015.0 1015.0 0.0
01/03:30pm 23.9 21.2 11.6 46 6.9 NW 17 22 9 12 1015.2 1015.2 0.0
01/03:00pm 24.5 21.5 10.8 42 7.6 NNW 17 20 9 11 1015.2 1015.2 0.0
01/02:30pm 24.5 21.3 10.0 40 8.0 NNW 17 22 9 12 1015.2 1015.2 0.0
01/02:00pm 24.8 21.3 10.3 40 8.0 N 19 24 10 13 1015.6 1015.6 0.0
01/01:30pm 24.5 21.1 10.4 41 7.8 N 19 28 10 15 1015.8 1015.8 0.0
01/01:00pm 24.6 20.6 9.0 37 8.4 N 20 28 11 15 1016.2 1016.2 0.0
01/12:30pm 23.8 20.0 9.0 39 8.0 N 19 24 10 13 1016.4 1016.4 0.0
01/12:00pm 23.3 19.6 9.3 41 7.5 N 19 24 10 13 1016.8 1016.8 0.0
01/11:30am 23.4 20.7 10.5 44 7.1 NNW 15 20 8 11 1017.4 1017.4 0.0
01/11:00am 22.8 20.1 10.3 45 6.8 NNW 15 20 8 11 1017.5 1017.5 0.0
01/10:30am 22.3 19.8 9.8 45 6.8 N 13 20 7 11 1017.6 1017.6 0.0
01/10:00am 21.3 18.2 8.9 45 6.6 NNE 15 22 8 12 1018.2 1018.2 0.0
01/09:30am 20.9 17.6 8.2 44 6.6 ENE 15 20 8 11 1018.5 1018.5 0.0
01/09:00am 19.2 15.1 7.9 48 5.8 ENE 19 24 10 13 1018.5 1018.5 -
01/08:30am 18.4 14.7 7.8 50 5.4 ENE 17 22 9 12 1018.9 1018.9 -
01/08:00am 16.6 12.1 7.0 53 4.7 ENE 20 26 11 14 1018.9 1018.9 -
01/07:30am 15.6 11.4 7.4 58 4.1 E 19 24 10 13 1018.9 1018.9 -
01/07:00am 14.4 11.0 7.5 63 3.4 E 15 19 8 10 1019.0 1019.0 -
01/06:30am 12.0 9.4 7.7 75 2.1 E 11 15 6 8 1018.9 1018.9 -
01/06:00am 8.5 6.5 6.1 85 1.1 SSE 6 7 3 4 1018.9 1018.9 -
01/05:30am 9.2 8.3 5.9 80 1.5 CALM 0 0 0 0 1018.7 1018.7 -
01/05:00am 9.0 6.7 5.9 81 1.4 E 7 9 4 5 1018.3 1018.3 -
01/04:30am 9.4 7.1 5.9 79 1.6 E 7 11 4 6 1018.2 1018.2 -
01/04:00am 10.0 7.4 6.3 78 1.7 E 9 13 5 7 1018.2 1018.2 -
01/03:30am 10.4 8.3 6.5 77 1.8 E 7 11 4 6 1018.5 1018.5 -
01/03:00am 10.4 7.2 6.7 78 1.7 E 13 17 7 9 1018.2 1018.2 -
01/02:30am 11.1 6.8 6.8 75 2.0 E 19 22 10 12 1017.9 1017.9 -
01/02:00am 11.5 7.2 7.0 74 2.1 E 19 26 10 14 1018.1 1018.1 -
01/01:30am 11.9 7.0 7.0 72 2.3 E 22 26 12 14 1018.2 1018.2 -
01/01:00am 12.0 7.5 7.1 72 2.3 E 20 28 11 15 1018.4 1018.4 -
01/12:30am 11.6 7.3 7.1 74 2.2 ESE 19 24 10 13 1018.4 1018.4 -
01/12:00am 11.8 7.6 7.3 74 2.2 ESE 19 20 10 11 1018.8 1018.8 -
 
Date/Time
WST
Temp
°C
App
Temp
°C
Dew
Point
Rel
Hum
%
Delta-T
°C
Wind Press
QNH
hPa
Press
MSL
hPa
Rain
since 9 am
mm
Dir
 
Spd
km/h
Gust
km/h
Spd
kts
Gust
kts
31/11:30pm 12.4 - 7.7 73 2.3 - - - - - 1019.0 1019.0 -
31/11:00pm 11.5 8.1 7.6 77 1.9 SE 15 19 8 10 1019.2 1019.2 0.0
31/10:30pm 12.2 9.2 7.9 75 2.1 SSE 13 19 7 10 1019.0 1019.0 0.0
31/10:00pm 12.6 9.4 8.3 75 2.1 S 15 22 8 12 1019.1 1019.1 0.0
31/09:30pm 13.2 10.0 8.5 73 2.3 S 15 19 8 10 1019.3 1019.3 0.0
31/09:00pm 13.5 10.0 8.6 72 2.4 S 17 20 9 11 1019.1 1019.1 0.0
31/08:30pm 13.8 10.6 8.6 71 2.6 S 15 19 8 10 1019.0 1019.0 0.0
31/08:00pm 14.5 11.7 8.7 68 2.9 S 13 19 7 10 1018.7 1018.7 0.0
31/07:30pm 15.1 11.7 9.0 67 3.1 S 17 24 9 13 1018.3 1018.3 0.0
31/07:00pm 15.8 12.4 9.2 65 3.4 S 17 24 9 13 1018.1 1018.1 0.0
31/06:30pm 16.9 13.2 9.6 62 3.8 S 19 26 10 14 1018.0 1018.0 0.0
31/06:00pm 18.2 14.0 9.8 58 4.4 S 22 32 12 17 1017.6 1017.6 0.0
31/05:30pm 19.4 14.1 9.9 54 5.1 SSW 28 39 15 21 1017.8 1017.8 0.0
31/05:18pm 20.0 14.8 10.1 53 5.3 SW 28 37 15 20 1017.6 1017.6 0.0
31/05:00pm 21.9 19.4 6.6 37 7.8 S 9 13 5 7 1017.2 1017.2 0.0
31/04:30pm 22.3 19.1 6.9 37 7.9 SSE 13 22 7 12 1016.9 1016.9 0.0
31/04:00pm 22.6 20.2 6.8 36 8.1 SSE 9 15 5 8 1017.0 1017.0 0.0
31/03:30pm 21.9 19.0 6.6 37 7.8 SSE 11 17 6 9 1016.9 1016.9 0.0
31/03:00pm 21.7 19.3 6.8 38 7.6 SSE 9 17 5 9 1016.9 1016.9 0.0
31/02:30pm 21.7 19.3 7.2 39 7.5 ESE 9 17 5 9 1016.9 1016.9 0.0
31/02:00pm 21.4 18.6 6.9 39 7.4 S 11 19 6 10 1017.1 1017.1 0.0
31/01:30pm 21.4 17.8 6.9 39 7.4 SSE 15 24 8 13 1017.2 1017.2 0.0
31/01:00pm 21.6 17.8 7.4 40 7.3 E 17 24 9 13 1017.3 1017.3 0.0
31/12:30pm 20.6 16.2 7.2 42 6.8 S 20 28 11 15 1017.4 1017.4 0.0
31/12:00pm 20.6 16.9 7.9 44 6.6 SE 17 33 9 18 1017.6 1017.6 0.0
31/11:30am 19.9 16.3 6.6 42 6.7 SSE 15 26 8 14 1017.9 1017.9 0.0
31/11:00am 19.4 15.2 7.5 46 6.1 S 19 30 10 16 1018.4 1018.4 0.0
31/10:30am 17.5 12.7 7.5 52 5.0 S 22 30 12 16 1018.5 1018.5 0.0
31/10:00am 17.5 13.0 7.0 50 5.2 SSE 20 26 11 14 1018.5 1018.5 0.0
31/09:30am 16.8 12.9 6.9 52 4.9 SSE 17 26 9 14 1018.2 1018.2 0.0
31/09:00am 16.0 11.7 7.2 56 4.4 S 19 28 10 15 1018.2 1018.2 0.2
31/08:30am 16.3 12.6 7.8 57 4.3 S 17 22 9 12 1018.0 1018.0 0.2
31/08:00am 14.8 11.5 8.1 64 3.3 S 15 20 8 11 1017.8 1017.8 0.2
31/07:30am 13.4 10.7 7.4 67 2.9 S 11 13 6 7 1017.6 1017.6 0.2
31/07:00am 12.3 10.2 8.2 76 2.0 S 9 13 5 7 1017.2 1017.2 0.2
31/06:30am 10.3 8.0 7.4 82 1.4 S 9 11 5 6 1017.1 1017.1 0.2
31/06:00am 8.4 6.2 6.4 87 0.9 S 7 9 4 5 1016.8 1016.8 0.2
31/05:30am 8.2 5.6 6.3 88 0.9 SSW 9 9 5 5 1016.3 1016.3 0.2
31/05:00am 8.9 6.8 6.5 85 1.1 SSW 7 7 4 4 1016.0 1016.0 0.2
31/04:30am 10.5 8.4 6.6 77 1.8 SW 7 7 4 4 1015.4 1015.4 0.2
31/04:00am 10.1 6.9 6.8 80 1.6 SSW 13 15 7 8 1015.0 1015.0 0.2
31/03:30am 11.2 7.4 7.5 78 1.8 SSW 17 20 9 11 1014.8 1014.8 0.2
31/03:00am 12.0 8.0 8.3 78 1.8 SSW 19 24 10 13 1014.6 1014.6 0.2
31/02:30am 12.8 9.1 9.3 79 1.8 SSW 19 26 10 14 1014.3 1014.3 0.2
31/02:00am 13.4 10.0 10.4 82 1.6 SSW 19 28 10 15 1014.0 1014.0 0.2
31/01:30am 13.4 11.4 11.6 89 1.0 SSW 13 17 7 9 1013.6 1013.6 0.2
31/01:00am 14.1 11.9 12.1 88 1.1 SSW 15 20 8 11 1013.5 1013.5 0.0
31/12:30am 14.6 11.8 13.3 92 0.7 SSW 20 30 11 16 1013.7 1013.7 0.0
31/12:00am 15.1 13.2 14.1 94 0.6 SSW 17 26 9 14 1013.8 1013.8 0.0
 
Date/Time
WST
Temp
°C
App
Temp
°C
Dew
Point
Rel
Hum
%
Delta-T
°C
Wind Press
QNH
hPa
Press
MSL
hPa
Rain
since 9 am
mm
Dir
 
Spd
km/h
Gust
km/h
Spd
kts
Gust
kts
30/11:30pm 15.4 14.5 13.8 90 0.9 WNW 11 20 6 11 1013.4 1013.4 0.0
30/11:00pm 15.5 14.1 13.3 87 1.2 W 13 22 7 12 1013.5 1013.5 0.0
30/10:30pm 16.7 14.8 11.8 73 2.7 WNW 13 19 7 10 1013.5 1013.5 0.0
30/10:00pm 16.2 14.6 11.6 74 2.5 WNW 11 15 6 8 1013.6 1013.6 0.0
30/09:30pm 15.4 14.1 11.2 76 2.2 WNW 9 13 5 7 1013.8 1013.8 0.0
30/09:00pm 15.1 13.6 10.5 74 2.4 WNW 9 13 5 7 1014.0 1014.0 0.0
30/08:30pm 16.3 14.5 11.0 71 2.8 W 11 17 6 9 1014.1 1014.1 0.0
30/08:00pm 16.4 15.1 11.3 72 2.7 W 9 13 5 7 1013.9 1013.9 0.0
30/07:30pm 16.4 14.7 11.3 72 2.7 WSW 11 19 6 10 1013.8 1013.8 0.0
30/07:00pm 16.9 14.4 11.0 68 3.2 WSW 15 24 8 13 1013.7 1013.7 0.0
30/06:30pm 16.9 14.8 11.2 69 3.1 W 13 24 7 13 1013.4 1013.4 0.0
30/06:00pm 17.1 14.2 10.9 67 3.3 W 17 32 9 17 1013.3 1013.3 0.0
30/05:30pm 18.1 14.5 10.5 61 4.1 W 20 30 11 16 1013.1 1013.1 0.0
30/05:00pm 17.7 13.9 11.0 65 3.6 W 22 35 12 19 1013.0 1013.0 0.0
30/04:30pm 18.6 15.0 9.7 56 4.7 W 19 24 10 13 1012.7 1012.7 0.0
30/04:00pm 18.8 15.1 9.3 54 5.0 W 19 28 10 15 1012.6 1012.6 0.0
30/03:30pm 18.5 14.9 9.8 57 4.6 W 19 28 10 15 1012.7 1012.7 0.0
30/03:00pm 18.0 13.8 9.9 59 4.3 W 22 32 12 17 1013.0 1013.0 0.0
30/02:30pm 19.0 14.2 8.9 52 5.3 W 24 33 13 18 1013.0 1013.0 0.0
30/02:00pm 19.2 14.6 9.7 54 5.0 W 24 37 13 20 1013.1 1013.1 0.0
30/01:30pm 20.4 16.7 9.6 50 5.8 WSW 19 26 10 14 1012.9 1012.9 0.0
30/01:00pm 20.1 15.9 9.9 52 5.5 W 22 33 12 18 1013.0 1013.0 0.0
30/12:30pm 21.5 17.2 9.4 46 6.5 W 22 30 12 16 1013.0 1013.0 0.0
30/12:00pm 20.5 17.0 8.8 47 6.2 WSW 17 24 9 13 1013.3 1013.3 0.0
30/11:30am 19.5 15.7 9.1 51 5.5 WSW 19 24 10 13 1013.4 1013.4 0.0
30/11:00am 20.3 16.8 8.9 48 6.0 W 17 28 9 15 1013.6 1013.6 0.0
30/10:30am 19.9 16.4 8.9 49 5.8 SW 17 24 9 13 1013.8 1013.8 0.0
30/10:00am 19.6 16.5 8.9 50 5.6 WSW 15 28 8 15 1014.2 1014.2 0.0
30/09:30am 18.3 14.8 8.8 54 4.9 SW 17 22 9 12 1014.4 1014.4 0.0
30/09:00am 17.5 15.1 8.6 56 4.6 SSW 11 15 6 8 1014.2 1014.2 0.0
30/08:30am 16.8 14.0 8.5 58 4.2 SSW 13 19 7 10 1014.4 1014.4 0.0
30/08:00am 16.3 13.4 8.3 59 4.1 SSW 13 20 7 11 1014.5 1014.5 0.0
30/07:30am 15.8 14.0 9.5 66 3.3 SSW 9 13 5 7 1014.5 1014.5 0.0
30/07:00am 14.6 12.8 9.6 72 2.6 SSW 9 11 5 6 1014.7 1014.7 0.0
30/06:30am 14.2 12.9 10.0 76 2.2 S 7 7 4 4 1014.6 1014.6 0.0
30/06:00am 13.7 13.2 10.7 82 1.6 S 4 7 2 4 1014.6 1014.6 0.0
30/05:30am 13.2 12.0 10.4 83 1.5 SSW 7 9 4 5 1014.5 1014.5 0.0
30/05:00am 13.4 11.5 10.4 82 1.6 SW 11 13 6 7 1014.6 1014.6 0.0
30/04:30am 13.1 11.2 10.5 84 1.4 SW 11 13 6 7 1014.7 1014.7 0.0
30/04:00am 13.1 11.3 10.8 86 1.2 SW 11 13 6 7 1014.6 1014.6 0.0
30/03:30am 12.8 11.4 11.0 89 0.9 SW 9 13 5 7 1014.5 1014.5 0.0
30/03:00am 12.3 10.8 10.5 89 0.9 SW 9 13 5 7 1014.4 1014.4 0.0
30/02:30am 11.9 10.3 10.3 90 0.8 SW 9 9 5 5 1014.5 1014.5 0.0
30/02:00am 12.0 11.0 10.2 89 0.9 WSW 6 7 3 4 1014.3 1014.3 0.0
30/01:30am 12.8 12.9 10.3 85 1.3 CALM 0 6 0 3 1014.4 1014.4 0.0
30/01:00am 13.4 11.5 10.4 82 1.6 SW 11 13 6 7 1014.5 1014.5 0.0
30/12:30am 14.0 11.4 10.8 81 1.7 S 15 19 8 10 1014.4 1014.4 0.0
30/12:00am 14.1 11.1 10.7 80 1.8 S 17 24 9 13 1014.8 1014.8 0.0
 
Date/Time
WST
Temp
°C
App
Temp
°C
Dew
Point
Rel
Hum
%
Delta-T
°C
Wind Press
QNH
hPa
Press
MSL
hPa
Rain
since 9 am
mm
Dir
 
Spd
km/h
Gust
km/h
Spd
kts
Gust
kts
29/11:30pm 13.5 11.2 10.3 81 1.7 S 13 17 7 9 1014.9 1014.9 0.0
29/11:00pm 13.9 11.2 10.5 80 1.8 S 15 19 8 10 1015.0 1015.0 0.0
29/10:30pm 14.0 10.6 10.6 80 1.8 S 19 24 10 13 1015.0 1015.0 0.0
29/10:00pm 14.2 10.6 10.6 79 1.9 S 20 26 11 14 1015.1 1015.1 0.0
29/09:30pm 14.5 10.9 10.7 78 2.0 S 20 28 11 15 1015.4 1015.4 0.0
29/09:00pm 14.8 10.5 10.8 77 2.1 S 24 32 13 17 1015.3 1015.3 0.0
29/08:30pm 15.0 11.1 10.8 76 2.2 S 22 28 12 15 1015.0 1015.0 0.0
29/08:00pm 15.4 11.8 10.4 72 2.6 S 20 28 11 15 1014.6 1014.6 0.0
29/07:30pm 16.0 12.3 10.1 68 3.1 S 20 26 11 14 1014.2 1014.2 0.0
29/07:00pm 17.0 12.6 10.4 65 3.5 S 24 32 13 17 1014.0 1014.0 0.0
29/06:30pm 18.2 14.7 10.8 62 4.0 S 20 26 11 14 1013.9 1013.9 0.0
29/06:00pm 19.7 16.1 10.4 55 5.0 S 20 30 11 16 1013.6 1013.6 0.0
29/05:30pm 20.7 16.5 11.1 54 5.3 S 24 32 13 17 1013.4 1013.4 0.0

Other Formats:

Comma delimited format used in spreadsheet applications
http://www.bom.gov.au/fwo/IDW60801/IDW60801.95611.axf

JavaScript Object Notation format (JSON) in row-major order
http://www.bom.gov.au/fwo/IDW60801/IDW60801.95611.json